MST,Max TemperatureF,Mean TemperatureF,Min TemperatureF,Max Dew PointF,MeanDew PointF,Min DewpointF,Max Humidity, Mean Humidity, Min Humidity, Max Sea Level PressureIn, Mean Sea Level PressureIn, Min Sea Level PressureIn, Max VisibilityMiles, Mean VisibilityMiles, Min VisibilityMiles, Max Wind SpeedMPH, Mean Wind SpeedMPH, Max Gust SpeedMPH,PrecipitationIn, CloudCover, Events, WindDirDegrees
2013-1-1,28,14,0,25,12,-9,100,84,61,30.04,30.01,29.95,10,9,1,22,8,32,0.00,4,,252
2013-1-2,26,22,19,23,17,12,93,80,68,30.29,30.14,30.02,10,9,2,25,17,32,0.00,8,,304
2013-1-3,21,11,1,12,6,-2,100,77,62,30.25,30.12,30.04,10,10,10,20,9,,0.00,0,,199
2013-1-4,30,16,1,23,9,-9,93,75,56,30.05,30.00,29.94,10,10,10,22,7,25,0.00,0,,198
2013-1-5,30,21,12,21,14,7,86,74,64,30.17,30.11,29.94,10,10,10,29,14,33,0.00,0,,276
2013-1-6,32,21,10,25,15,7,93,79,63,30.11,29.88,29.76,10,10,10,17,9,,0.00,1,,203
2013-1-7,35,27,19,23,19,14,86,69,56,29.86,29.77,29.63,10,10,10,17,12,21,0.00,1,,243
2013-1-8,37,26,15,30,24,9,93,78,68,30.01,29.77,29.56,10,9,2,23,13,29,0.00,2,,264
2013-1-9,37,27,17,28,21,9,86,74,68,30.02,29.88,29.67,10,10,10,16,9,,0.00,1,,191
2013-1-10,35,27,19,28,24,16,93,84,75,29.66,29.55,29.45,10,8,2,24,10,29,0.00,3,,324
2013-1-11,19,10,1,16,5,-4,93,81,72,29.97,29.76,29.62,10,3,1,30,17,34,0.00,6,,345
2013-1-12,6,0,-7,-2,-7,-20,100,74,54,30.10,30.04,29.96,10,9,2,30,14,36,0.00,1,,263
2013-1-13,8,2,-5,7,-1,-11,100,81,61,30.10,30.10,30.10,10,9,2,16,6,16,0.00,6,,288
2013-1-14,15,6,-4,10,3,-11,92,81,58,30.14,30.02,29.91,10,10,7,12,4,20,0.00,7,,204
2013-1-15,37,26,14,30,25,7,93,80,70,29.91,29.85,29.78,10,9,2,28,14,36,0.00,6,,258
2013-1-16,39,37,35,30,28,27,81,72,65,30.00,29.99,29.99,10,10,10,26,19,33,0.00,6,,281
2013-1-17,37,30,24,28,26,21,93,75,60,30.07,29.97,29.85,10,10,10,17,11,24,0.00,2,,241
2013-1-18,42,36,30,28,26,21,80,64,53,29.85,29.81,29.76,10,10,10,22,14,23,0.00,3,,272
2013-1-19,35,24,12,27,14,5,86,73,62,30.31,30.15,29.86,10,10,10,26,13,32,0.00,5,,359
2013-1-20,14,2,-9,10,-4,-18,92,71,55,30.52,30.41,30.18,10,9,2,21,10,25,0.00,5,,330
2013-1-21,8,3,-2,5,-3,-11,85,70,56,30.39,30.24,30.10,10,9,3,14,7,,0.00,4,,269
2013-1-22,24,16,8,14,8,3,92,76,59,30.15,30.07,30.04,10,10,10,12,5,,0.00,3,,303
2013-1-23,12,8,3,7,2,-2,85,75,67,30.36,30.24,30.08,10,10,10,12,7,,0.00,0,,59
2013-1-24,39,24,10,27,15,3,80,73,61,30.07,29.94,29.85,10,10,10,23,13,31,0.00,1,,211
2013-1-25,37,24,12,25,20,3,93,77,60,30.07,30.00,29.90,10,10,10,13,8,,0.00,0,,195
2013-1-26,46,36,26,34,28,25,93,75,57,29.89,29.82,29.74,10,10,10,12,6,,0.00,3,,155
2013-1-27,35,29,23,30,26,19,100,88,75,29.79,29.73,29.67,10,8,0,17,7,22,0.00,5,,321
2013-1-28,35,25,15,28,23,10,100,86,73,29.79,29.76,29.70,10,8,0,9,5,,0.01,3,,209
2013-1-29,21,8,-4,21,7,-11,100,83,66,30.16,29.88,29.66,10,5,0,30,9,37,0.00,5,,311
2013-1-30,6,0,-7,3,-6,-17,92,74,65,30.10,29.95,29.87,10,8,2,22,6,28,0.00,5,,311
2013-1-31,10,-6,-20,5,-13,-29,100,70,55,30.30,30.18,29.99,10,10,7,23,12,23,0.00,4,,240